createdAt,value
2024-04-15T00:00:15.446Z,13.29
2024-04-15T00:03:07.047Z,13.28
2024-04-15T00:05:35.525Z,13.26
2024-04-15T00:08:04.529Z,13.23
2024-04-15T00:10:33.306Z,13.21
2024-04-15T00:13:01.895Z,13.20
2024-04-15T00:15:30.731Z,13.16
2024-04-15T00:17:59.658Z,13.14
2024-04-15T00:20:30.837Z,13.10
2024-04-15T00:22:59.938Z,13.04
2024-04-15T00:25:28.633Z,12.99
2024-04-15T00:27:57.933Z,12.94
2024-04-15T00:30:27.482Z,12.87
2024-04-15T00:32:56.742Z,12.83
2024-04-15T00:35:28.942Z,12.80
2024-04-15T00:38:00.211Z,12.80
2024-04-15T00:40:31.748Z,12.77
2024-04-15T00:43:00.363Z,12.72
2024-04-15T00:45:31.383Z,12.65
2024-04-15T00:48:03.277Z,12.60
2024-04-15T00:50:41.366Z,12.59
2024-04-15T00:53:13.683Z,12.61
2024-04-15T00:55:42.936Z,12.64
2024-04-15T00:58:12.910Z,12.66
2024-04-15T01:00:41.692Z,12.65
2024-04-15T01:03:11.078Z,12.61
2024-04-15T01:05:40.337Z,12.57
2024-04-15T01:08:08.935Z,12.53
2024-04-15T01:13:10.005Z,12.52
2024-04-15T01:15:39.079Z,12.52
2024-04-15T01:18:07.570Z,12.52
2024-04-15T01:20:36.493Z,12.49
2024-04-15T01:23:09.724Z,12.43
2024-04-15T01:25:37.953Z,12.39
2024-04-15T01:28:06.521Z,12.36
2024-04-15T01:30:34.646Z,12.35
2024-04-15T01:33:03.432Z,12.34
2024-04-15T01:35:31.880Z,12.31
2024-04-15T01:38:03.688Z,12.27
2024-04-15T01:40:32.053Z,12.22
2024-04-15T01:43:00.438Z,12.19
2024-04-15T01:45:28.784Z,12.15
2024-04-15T01:47:57.616Z,12.14
2024-04-15T01:50:26.897Z,12.11
2024-04-15T01:52:56.447Z,12.08
2024-04-15T01:55:26.852Z,12.05
2024-04-15T01:57:55.319Z,12.03
2024-04-15T02:00:23.782Z,12.00
2024-04-15T02:02:52.093Z,11.96
2024-04-15T02:05:20.602Z,11.94
2024-04-15T02:07:49.843Z,11.93
2024-04-15T02:10:18.401Z,11.91
2024-04-15T02:12:48.537Z,11.87
2024-04-15T02:15:16.976Z,11.87
2024-04-15T02:17:45.322Z,11.86
2024-04-15T02:20:13.793Z,11.82
2024-04-15T02:22:41.866Z,11.75
2024-04-15T02:25:10.026Z,11.64
2024-04-15T02:27:38.156Z,11.61
2024-04-15T02:30:08.746Z,11.53
2024-04-15T02:32:37.313Z,11.41
2024-04-15T02:35:06.911Z,11.29
2024-04-15T02:37:36.196Z,11.17
2024-04-15T02:40:05.891Z,11.11
2024-04-15T02:42:34.724Z,11.12
2024-04-15T02:45:02.878Z,11.10
2024-04-15T02:47:32.039Z,11.06
2024-04-15T02:50:00.475Z,11.00
2024-04-15T02:52:28.736Z,10.95
2024-04-15T02:54:57.176Z,10.92
2024-04-15T02:57:25.602Z,10.89
2024-04-15T02:59:53.870Z,10.92
2024-04-15T03:02:22.397Z,10.96
2024-04-15T03:04:51.113Z,10.98
2024-04-15T03:07:19.638Z,10.97
2024-04-15T03:09:48.382Z,10.93
2024-04-15T03:12:17.473Z,10.93
2024-04-15T03:14:45.877Z,10.92
2024-04-15T03:17:14.352Z,10.91
2024-04-15T03:19:42.669Z,10.88
2024-04-15T03:22:11.538Z,10.86
2024-04-15T03:24:39.731Z,10.86
2024-04-15T03:27:08.121Z,10.87
2024-04-15T03:29:36.305Z,10.88
2024-04-15T03:32:04.814Z,10.89
2024-04-15T03:34:33.432Z,10.90
2024-04-15T03:37:01.870Z,10.85
2024-04-15T03:39:30.570Z,10.76
2024-04-15T03:41:59.048Z,10.68
2024-04-15T03:44:27.300Z,10.63
2024-04-15T03:46:55.592Z,10.59
2024-04-15T03:49:24.525Z,10.60
2024-04-15T03:51:53.548Z,10.58
2024-04-15T03:54:22.196Z,10.58
2024-04-15T03:56:50.436Z,10.61
2024-04-15T03:59:20.448Z,10.66
2024-04-15T04:01:48.725Z,10.71
2024-04-15T04:04:17.167Z,10.75
2024-04-15T04:06:45.664Z,10.83
2024-04-15T04:09:14.809Z,10.92
2024-04-15T04:11:43.360Z,11.00
2024-04-15T04:14:11.698Z,11.08
2024-04-15T04:16:40.092Z,11.17
2024-04-15T04:19:08.706Z,11.27
2024-04-15T04:21:37.794Z,11.33
2024-04-15T04:24:07.084Z,11.22
2024-04-15T04:26:36.123Z,11.20
2024-04-15T04:29:05.608Z,11.27
2024-04-15T04:31:34.679Z,11.33
2024-04-15T04:34:06.303Z,11.43
2024-04-15T04:36:34.767Z,11.51
2024-04-15T04:39:03.481Z,11.56
2024-04-15T04:41:32.919Z,11.58
2024-04-15T04:44:01.111Z,11.54
2024-04-15T04:46:29.370Z,11.54
2024-04-15T04:48:58.284Z,11.59
2024-04-15T04:51:27.009Z,11.67
2024-04-15T04:53:55.500Z,11.80
2024-04-15T04:56:24.073Z,11.82
2024-04-15T04:58:52.290Z,11.99
2024-04-15T05:01:20.848Z,12.09
2024-04-15T05:03:51.442Z,12.14
2024-04-15T05:06:19.976Z,12.15
2024-04-15T05:08:48.415Z,12.12
2024-04-15T05:11:17.743Z,12.12
2024-04-15T05:13:45.750Z,12.17
2024-04-15T05:16:15.226Z,12.19
2024-04-15T05:18:45.310Z,12.26
2024-04-15T05:21:17.946Z,12.33
2024-04-15T05:23:48.826Z,12.46
2024-04-15T05:26:17.321Z,12.50
2024-04-15T05:28:46.586Z,12.64
2024-04-15T05:31:18.346Z,12.79
2024-04-15T05:33:47.859Z,12.85
2024-04-15T05:36:16.392Z,12.97
2024-04-15T05:38:45.148Z,13.11
2024-04-15T05:41:15.024Z,13.32
2024-04-15T05:43:43.660Z,13.49
2024-04-15T05:46:13.448Z,13.68
2024-04-15T05:48:42.610Z,13.83
2024-04-15T05:51:13.993Z,13.94
2024-04-15T05:53:42.758Z,13.93
2024-04-15T05:56:12.350Z,13.98
2024-04-15T05:58:41.214Z,13.97
2024-04-15T06:01:10.001Z,14.04
2024-04-15T06:03:38.889Z,14.13
2024-04-15T06:06:07.131Z,14.33
2024-04-15T06:08:35.527Z,14.53
2024-04-15T06:11:04.055Z,14.81
2024-04-15T06:13:32.332Z,15.05
2024-04-15T06:16:01.146Z,15.24
2024-04-15T06:18:29.638Z,15.47
2024-04-15T06:20:58.428Z,15.70
2024-04-15T06:23:27.485Z,15.77
2024-04-15T06:25:55.989Z,15.87
2024-04-15T06:28:24.951Z,15.95
2024-04-15T06:30:53.671Z,15.90
2024-04-15T06:33:22.539Z,15.99
2024-04-15T06:35:51.477Z,15.99
2024-04-15T06:38:19.628Z,15.93
2024-04-15T06:40:48.020Z,16.05
2024-04-15T06:43:16.569Z,16.36
2024-04-15T06:45:46.080Z,16.61
2024-04-15T06:48:17.104Z,16.83
2024-04-15T06:50:46.762Z,17.22
2024-04-15T06:53:15.582Z,17.34
2024-04-15T06:55:44.823Z,17.16
2024-04-15T06:58:14.505Z,17.38
2024-04-15T07:00:43.465Z,17.22
2024-04-15T07:03:12.511Z,17.44
2024-04-15T07:05:41.322Z,17.78
2024-04-15T07:08:09.869Z,17.91
2024-04-15T07:10:39.716Z,17.91
2024-04-15T07:13:13.795Z,18.10
2024-04-15T07:15:43.203Z,18.16
2024-04-15T07:18:12.987Z,17.79
2024-04-15T07:20:42.548Z,17.62
2024-04-15T07:23:12.505Z,18.16
2024-04-15T07:25:41.513Z,18.69
2024-04-15T07:28:10.518Z,19.04
2024-04-15T07:30:39.649Z,19.54
2024-04-15T07:33:08.941Z,19.62
2024-04-15T07:35:38.722Z,19.64
2024-04-15T07:38:08.670Z,19.44
2024-04-15T07:40:37.548Z,19.26
2024-04-15T07:43:06.195Z,19.43
2024-04-15T07:45:36.679Z,19.49
2024-04-15T07:48:07.552Z,19.44
2024-04-15T07:50:37.350Z,19.89
2024-04-15T07:53:07.771Z,20.20
2024-04-15T07:55:37.065Z,20.20
2024-04-15T07:58:06.164Z,20.49
2024-04-15T08:00:35.280Z,20.81
2024-04-15T08:03:05.053Z,20.94
2024-04-15T08:05:33.978Z,21.15
2024-04-15T08:08:02.940Z,21.16
2024-04-15T08:10:34.267Z,21.29
2024-04-15T08:13:06.091Z,21.32
2024-04-15T08:15:34.826Z,21.28
2024-04-15T08:18:04.890Z,21.53
2024-04-15T08:20:33.499Z,21.41
2024-04-15T08:23:02.750Z,21.35
2024-04-15T08:25:31.469Z,21.28
2024-04-15T08:28:00.798Z,21.37
2024-04-15T08:30:31.561Z,21.44
2024-04-15T08:33:07.231Z,21.48
2024-04-15T08:35:42.915Z,21.42
2024-04-15T08:38:13.482Z,21.41
2024-04-15T08:41:03.150Z,21.55
2024-04-15T08:43:32.409Z,21.65
2024-04-15T08:46:04.634Z,21.74
2024-04-15T08:48:34.574Z,21.83
2024-04-15T08:51:05.362Z,21.81
2024-04-15T08:53:34.961Z,21.72
2024-04-15T08:56:07.783Z,21.84
2024-04-15T08:58:37.391Z,22.03
2024-04-15T09:01:11.690Z,22.25
2024-04-15T09:03:40.759Z,22.37
2024-04-15T09:06:10.134Z,22.54
2024-04-15T09:08:38.764Z,22.58
2024-04-15T09:11:08.878Z,22.60
2024-04-15T09:13:39.837Z,22.64
2024-04-15T09:16:11.859Z,22.45
2024-04-15T09:18:41.217Z,22.64
2024-04-15T09:21:10.942Z,22.88
2024-04-15T09:23:41.810Z,23.09
2024-04-15T09:26:10.576Z,23.20
2024-04-15T09:28:39.946Z,23.29
2024-04-15T09:31:08.962Z,23.26
2024-04-15T09:33:37.963Z,23.40
2024-04-15T09:36:06.678Z,23.65
2024-04-15T09:38:39.832Z,23.95
2024-04-15T09:41:12.675Z,24.26
2024-04-15T09:43:42.563Z,24.30
2024-04-15T09:46:14.182Z,24.46
2024-04-15T09:48:45.358Z,24.40
2024-04-15T09:51:24.468Z,24.11
2024-04-15T09:53:54.822Z,24.03
2024-04-15T09:56:25.892Z,24.33
2024-04-15T09:58:57.255Z,24.67
2024-04-15T10:01:33.668Z,24.82
2024-04-15T10:04:08.272Z,24.87
2024-04-15T10:06:48.904Z,25.15
2024-04-15T10:09:19.910Z,25.45
2024-04-15T10:11:51.553Z,25.54
2024-04-15T10:14:21.151Z,25.53
2024-04-15T10:16:50.463Z,25.63
2024-04-15T10:19:48.157Z,25.59
2024-04-15T10:22:17.988Z,25.47
2024-04-15T10:24:46.552Z,25.44
2024-04-15T10:27:15.000Z,25.65
2024-04-15T10:29:44.527Z,25.90
2024-04-15T10:32:15.399Z,25.97
2024-04-15T10:34:44.339Z,26.11
2024-04-15T10:37:13.530Z,26.34
2024-04-15T10:39:49.187Z,26.66
2024-04-15T10:42:19.600Z,26.82
2024-04-15T10:44:52.810Z,26.64
2024-04-15T10:47:23.058Z,26.51
2024-04-15T10:49:52.506Z,26.42
2024-04-15T10:52:22.170Z,26.51
2024-04-15T10:54:51.117Z,26.58
2024-04-15T10:57:19.955Z,26.77
2024-04-15T10:59:54.049Z,27.10
2024-04-15T11:02:24.248Z,27.34
2024-04-15T11:04:53.299Z,27.41
2024-04-15T11:07:22.688Z,27.52
2024-04-15T11:09:51.678Z,27.58
2024-04-15T11:12:20.621Z,27.72
2024-04-15T11:14:56.557Z,27.55
2024-04-15T11:17:26.582Z,27.29
2024-04-15T11:20:01.211Z,27.23
2024-04-15T11:25:02.938Z,27.38
2024-04-15T11:27:34.804Z,27.64
2024-04-15T11:30:06.013Z,27.77
2024-04-15T11:32:35.217Z,27.96
2024-04-15T11:35:08.322Z,28.37
2024-04-15T11:37:37.402Z,28.52
2024-04-15T11:40:11.157Z,28.53
2024-04-15T11:42:43.108Z,28.54
2024-04-15T11:45:15.540Z,28.60
2024-04-15T11:47:44.365Z,28.53
2024-04-15T11:50:14.277Z,28.49
2024-04-15T11:52:43.209Z,28.56
2024-04-15T11:55:17.933Z,28.67
2024-04-15T11:57:49.340Z,28.57
2024-04-15T12:00:19.186Z,28.70
2024-04-15T12:02:50.282Z,28.90
2024-04-15T12:05:19.422Z,29.08
2024-04-15T12:07:48.776Z,29.13
2024-04-15T12:10:17.689Z,29.24
2024-04-15T12:12:49.400Z,29.29
2024-04-15T12:15:18.565Z,29.35
2024-04-15T12:17:48.748Z,29.41
2024-04-15T12:20:20.403Z,29.33
2024-04-15T12:22:49.433Z,29.22
2024-04-15T12:25:19.442Z,29.15
2024-04-15T12:27:49.199Z,29.26
2024-04-15T12:30:19.023Z,29.41
2024-04-15T12:32:48.067Z,29.50
2024-04-15T12:35:17.829Z,29.49
2024-04-15T12:37:46.542Z,29.46
2024-04-15T12:40:15.879Z,29.48
2024-04-15T12:42:44.937Z,29.61
2024-04-15T12:45:13.388Z,29.64
2024-04-15T12:47:42.230Z,29.53
2024-04-15T12:50:10.895Z,29.50
2024-04-15T12:52:39.552Z,29.42
2024-04-15T12:55:10.394Z,29.39
2024-04-15T12:57:39.427Z,29.39
2024-04-15T13:00:10.310Z,29.43
2024-04-15T13:02:41.227Z,29.48
2024-04-15T13:05:11.403Z,29.52
2024-04-15T13:07:40.263Z,29.40
2024-04-15T13:10:09.939Z,29.35
2024-04-15T13:12:38.503Z,29.40
2024-04-15T13:15:07.389Z,29.38
2024-04-15T13:17:36.121Z,29.40
2024-04-15T13:20:05.786Z,29.46
2024-04-15T13:22:35.191Z,29.41
2024-04-15T13:25:04.876Z,29.38
2024-04-15T13:27:34.102Z,29.36
2024-04-15T13:30:04.210Z,29.31
2024-04-15T13:32:34.389Z,29.34
2024-04-15T13:35:03.803Z,29.38
2024-04-15T13:37:32.583Z,29.36
2024-04-15T13:40:01.270Z,29.34
2024-04-15T13:42:30.432Z,29.28
2024-04-15T13:44:59.377Z,29.33
2024-04-15T13:47:27.569Z,29.33
2024-04-15T13:49:55.941Z,29.24
2024-04-15T13:52:25.147Z,29.19
2024-04-15T13:54:53.775Z,29.16
2024-04-15T13:57:24.223Z,29.11
2024-04-15T13:59:53.229Z,29.13
2024-04-15T14:02:23.768Z,29.10
2024-04-15T14:04:54.111Z,29.05
2024-04-15T14:07:24.068Z,29.02
2024-04-15T14:09:53.547Z,28.95
2024-04-15T14:12:25.363Z,28.91
2024-04-15T14:14:54.177Z,28.90
2024-04-15T14:17:23.954Z,28.83
2024-04-15T14:19:56.671Z,28.78
2024-04-15T14:22:27.360Z,28.72
2024-04-15T14:24:56.414Z,28.69
2024-04-15T14:27:25.889Z,28.64
2024-04-15T14:29:54.560Z,28.63
2024-04-15T14:32:23.485Z,28.61
2024-04-15T14:37:20.556Z,28.57
2024-04-15T14:39:54.908Z,28.52
2024-04-15T14:42:28.793Z,28.47
2024-04-15T14:44:59.066Z,28.42
2024-04-15T14:47:27.653Z,28.36
2024-04-15T14:49:56.739Z,28.27
2024-04-15T14:52:25.128Z,28.25
2024-04-15T14:54:53.768Z,28.22
2024-04-15T14:57:22.387Z,28.18
2024-04-15T14:59:53.813Z,28.12
2024-04-15T15:02:22.770Z,28.08
2024-04-15T15:04:52.775Z,28.07
2024-04-15T15:07:22.896Z,27.97
2024-04-15T15:09:51.909Z,27.96
2024-04-15T15:12:21.049Z,27.93
2024-04-15T15:14:53.173Z,27.88
2024-04-15T15:17:22.031Z,27.81
2024-04-15T15:19:53.377Z,27.72
2024-04-15T15:22:22.116Z,27.74
2024-04-15T15:24:50.659Z,27.71
2024-04-15T15:27:19.445Z,27.60
2024-04-15T15:29:47.811Z,27.47
2024-04-15T15:32:16.904Z,27.44
2024-04-15T15:34:46.204Z,27.35
2024-04-15T15:37:15.706Z,27.28
2024-04-15T15:39:44.443Z,27.27
2024-04-15T15:42:13.292Z,27.23
2024-04-15T15:44:42.128Z,27.20
2024-04-15T15:47:11.154Z,27.11
2024-04-15T15:49:40.326Z,27.04
2024-04-15T15:52:11.467Z,27.00
2024-04-15T15:54:40.169Z,26.92
2024-04-15T15:57:09.986Z,26.88
2024-04-15T15:59:39.209Z,26.82
2024-04-15T16:02:08.479Z,26.74
2024-04-15T16:04:38.502Z,26.69
2024-04-15T16:07:08.480Z,26.67
2024-04-15T16:09:38.006Z,26.62
2024-04-15T16:12:07.973Z,26.56
2024-04-15T16:14:36.424Z,26.47
2024-04-15T16:17:05.174Z,26.43
2024-04-15T16:19:33.650Z,26.35
2024-04-15T16:22:01.851Z,26.32
2024-04-15T16:24:30.343Z,26.27
2024-04-15T16:26:59.140Z,26.18
2024-04-15T16:29:27.562Z,26.12
2024-04-15T16:31:56.272Z,26.05
2024-04-15T16:34:25.093Z,26.00
2024-04-15T16:36:53.441Z,25.97
2024-04-15T16:39:21.648Z,25.90
2024-04-15T16:41:49.956Z,25.85
2024-04-15T16:44:18.665Z,25.77
2024-04-15T16:46:47.745Z,25.69
2024-04-15T16:49:16.510Z,25.60
2024-04-15T16:51:45.379Z,25.54
2024-04-15T16:54:14.367Z,25.45
2024-04-15T16:56:43.622Z,25.34
2024-04-15T16:59:12.220Z,25.24
2024-04-15T17:01:40.937Z,25.17
2024-04-15T17:04:09.510Z,25.09
2024-04-15T17:06:37.991Z,25.01
2024-04-15T17:09:06.872Z,24.93
2024-04-15T17:11:35.871Z,24.83
2024-04-15T17:14:04.374Z,24.72
2024-04-15T17:16:33.379Z,24.61
2024-04-15T17:19:02.345Z,24.50
2024-04-15T17:21:31.210Z,24.41
2024-04-15T17:23:59.911Z,24.32
2024-04-15T17:26:28.358Z,24.22
2024-04-15T17:28:57.399Z,24.14
2024-04-15T17:31:27.419Z,24.06
2024-04-15T17:33:56.646Z,23.97
2024-04-15T17:36:25.999Z,23.89
2024-04-15T17:38:55.650Z,23.80
2024-04-15T17:41:24.854Z,23.72
2024-04-15T17:43:53.151Z,23.64
2024-04-15T17:46:21.493Z,23.55
2024-04-15T17:48:51.822Z,23.45
2024-04-15T17:51:21.224Z,23.39
2024-04-15T17:53:49.549Z,23.32
2024-04-15T17:56:17.969Z,23.22
2024-04-15T17:58:47.240Z,23.15
2024-04-15T18:01:17.034Z,23.11
2024-04-15T18:03:45.916Z,23.05
2024-04-15T18:06:14.834Z,23.00
2024-04-15T18:08:42.952Z,22.93
2024-04-15T18:11:11.892Z,22.83
2024-04-15T18:13:40.455Z,22.79
2024-04-15T18:16:09.731Z,22.78
2024-04-15T18:18:38.678Z,22.72
2024-04-15T18:21:06.826Z,22.64
2024-04-15T18:23:35.282Z,22.55
2024-04-15T18:26:05.954Z,22.41
2024-04-15T18:28:36.197Z,22.26
2024-04-15T18:31:05.106Z,22.13
2024-04-15T18:33:33.810Z,22.07
2024-04-15T18:36:02.259Z,22.01
2024-04-15T18:38:30.909Z,21.94
2024-04-15T18:40:59.240Z,21.93
2024-04-15T18:43:27.725Z,21.84
2024-04-15T18:45:57.397Z,21.76
2024-04-15T18:48:25.591Z,21.64
2024-04-15T18:50:54.026Z,21.51
2024-04-15T18:53:22.542Z,21.45
2024-04-15T18:55:51.130Z,21.39
2024-04-15T18:58:19.848Z,21.32
2024-04-15T19:00:48.689Z,21.23
2024-04-15T19:03:17.487Z,21.17
2024-04-15T19:05:46.003Z,21.08
2024-04-15T19:08:16.351Z,21.04
2024-04-15T19:10:44.947Z,21.01
2024-04-15T19:13:13.235Z,20.99
2024-04-15T19:15:41.913Z,20.98
2024-04-15T19:18:10.503Z,21.00
2024-04-15T19:20:38.714Z,21.04
2024-04-15T19:23:07.160Z,21.07
2024-04-15T19:25:35.526Z,21.05
2024-04-15T19:28:05.282Z,21.01
2024-04-15T19:30:34.212Z,20.94
2024-04-15T19:33:04.798Z,20.91
2024-04-15T19:35:33.747Z,20.90
2024-04-15T19:38:03.663Z,20.91
2024-04-15T19:40:32.187Z,20.93
2024-04-15T19:43:03.969Z,20.91
2024-04-15T19:45:33.049Z,20.86
2024-04-15T19:48:02.650Z,20.79
2024-04-15T19:50:32.508Z,20.71
2024-04-15T19:53:00.875Z,20.62
2024-04-15T19:55:29.720Z,20.52
2024-04-15T19:57:59.602Z,20.47
2024-04-15T20:00:29.353Z,20.38
2024-04-15T20:02:57.878Z,20.22
2024-04-15T20:05:26.650Z,20.12
2024-04-15T20:07:58.503Z,20.05
2024-04-15T20:10:32.498Z,19.99
2024-04-15T20:13:01.278Z,19.88
2024-04-15T20:15:30.108Z,19.82
2024-04-15T20:18:10.613Z,19.79
2024-04-15T20:20:45.698Z,19.73
2024-04-15T20:23:15.505Z,19.71
2024-04-15T20:25:44.994Z,19.67
2024-04-15T20:28:15.335Z,19.61
2024-04-15T20:30:45.595Z,19.52
2024-04-15T20:33:18.059Z,19.45
2024-04-15T20:35:47.424Z,19.43
2024-04-15T20:38:16.778Z,19.35
2024-04-15T20:40:46.275Z,19.29
2024-04-15T20:43:15.265Z,19.24
2024-04-15T20:45:49.531Z,19.19
2024-04-15T20:48:19.222Z,19.14
2024-04-15T20:50:48.180Z,19.07
2024-04-15T20:53:16.831Z,19.06
2024-04-15T20:55:45.249Z,19.02
2024-04-15T20:58:14.028Z,18.99
2024-04-15T21:00:44.645Z,19.00
2024-04-15T21:03:13.946Z,19.00
2024-04-15T21:05:42.503Z,18.94
2024-04-15T21:08:11.176Z,18.87
2024-04-15T21:10:39.626Z,18.83
2024-04-15T21:13:09.029Z,18.76
2024-04-15T21:15:38.390Z,18.64
2024-04-15T21:18:07.202Z,18.59
2024-04-15T21:20:36.192Z,18.53
2024-04-15T21:23:04.726Z,18.49
2024-04-15T21:25:33.369Z,18.42
2024-04-15T21:28:02.280Z,18.38
2024-04-15T21:30:30.856Z,18.41
2024-04-15T21:33:01.628Z,18.41
2024-04-15T21:35:30.143Z,18.41
2024-04-15T21:38:00.080Z,18.39
2024-04-15T21:40:28.373Z,18.36
2024-04-15T21:42:56.978Z,18.38
2024-04-15T21:45:27.238Z,18.39
2024-04-15T21:47:55.445Z,18.46
2024-04-15T21:50:24.677Z,18.52
2024-04-15T21:52:52.959Z,18.52
2024-04-15T21:55:21.382Z,18.53
2024-04-15T21:57:50.131Z,18.54
2024-04-15T22:00:19.718Z,18.53
2024-04-15T22:02:48.488Z,18.53
2024-04-15T22:05:17.096Z,18.52
2024-04-15T22:07:48.304Z,18.54
2024-04-15T22:10:17.023Z,18.56
2024-04-15T22:12:45.915Z,18.60
2024-04-15T22:15:14.670Z,18.66
2024-04-15T22:17:43.075Z,18.70
2024-04-15T22:20:11.715Z,18.72
2024-04-15T22:22:40.281Z,18.72
2024-04-15T22:25:08.842Z,18.69
2024-04-15T22:27:37.517Z,18.64
2024-04-15T22:30:06.632Z,18.58
2024-04-15T22:32:37.097Z,18.57
2024-04-15T22:35:06.279Z,18.55
2024-04-15T22:37:35.055Z,18.58
2024-04-15T22:40:04.794Z,18.61
2024-04-15T22:42:33.273Z,18.51
2024-04-15T22:45:01.937Z,18.50
2024-04-15T22:47:31.579Z,18.49
2024-04-15T22:50:00.562Z,18.52
2024-04-15T22:52:29.336Z,18.52
2024-04-15T22:54:57.870Z,18.47
2024-04-15T22:57:27.202Z,18.42
2024-04-15T22:59:56.624Z,18.35
2024-04-15T23:02:25.327Z,18.38
2024-04-15T23:04:54.669Z,18.47
2024-04-15T23:07:23.227Z,18.50
2024-04-15T23:09:52.623Z,18.50
2024-04-15T23:12:20.906Z,18.52
2024-04-15T23:14:49.701Z,18.52
2024-04-15T23:17:18.651Z,18.50
2024-04-15T23:19:47.120Z,18.48
2024-04-15T23:22:17.205Z,18.48
2024-04-15T23:24:49.499Z,18.50
2024-04-15T23:27:18.408Z,18.46
2024-04-15T23:29:47.085Z,18.41
2024-04-15T23:32:16.171Z,18.35
2024-04-15T23:34:44.756Z,18.33
2024-04-15T23:37:14.379Z,18.29
2024-04-15T23:39:43.182Z,18.26
2024-04-15T23:42:12.940Z,18.29
2024-04-15T23:44:43.257Z,18.27
2024-04-15T23:47:30.787Z,18.27
2024-04-15T23:50:18.938Z,18.36
2024-04-15T23:53:06.977Z,18.40
2024-04-15T23:55:54.003Z,18.46
2024-04-15T23:58:25.665Z,18.52
